createdAt,value
2022-10-14T00:00:16.400Z,8.19
2022-10-14T00:02:43.208Z,8.18
2022-10-14T00:05:10.618Z,8.17
2022-10-14T00:07:37.512Z,8.14
2022-10-14T00:10:05.123Z,8.12
2022-10-14T00:12:32.324Z,8.11
2022-10-14T00:14:59.473Z,8.06
2022-10-14T00:17:27.846Z,8.06
2022-10-14T00:19:54.698Z,8.02
2022-10-14T00:22:21.515Z,8.04
2022-10-14T00:24:48.380Z,8.04
2022-10-14T00:27:15.297Z,7.99
2022-10-14T00:29:42.209Z,7.92
2022-10-14T00:32:09.128Z,7.96
2022-10-14T00:34:37.381Z,7.94
2022-10-14T00:37:04.319Z,7.94
2022-10-14T00:39:32.235Z,7.94
2022-10-14T00:41:59.031Z,7.94
2022-10-14T00:45:08.236Z,7.92
2022-10-14T00:47:36.264Z,7.83
2022-10-14T00:50:12.029Z,7.74
2022-10-14T00:52:39.183Z,7.82
2022-10-14T00:55:10.583Z,7.78
2022-10-14T00:57:38.774Z,7.74
2022-10-14T01:00:10.431Z,7.83
2022-10-14T01:02:37.635Z,7.82
2022-10-14T01:05:06.903Z,7.75
2022-10-14T01:07:59.779Z,7.76
2022-10-14T01:10:33.534Z,7.74
2022-10-14T01:13:14.505Z,7.75
2022-10-14T01:15:47.418Z,7.65
2022-10-14T01:18:20.404Z,7.59
2022-10-14T01:21:06.947Z,7.55
2022-10-14T01:24:09.898Z,7.53
2022-10-14T01:26:57.015Z,7.48
2022-10-14T01:30:00.880Z,7.53
2022-10-14T01:32:31.793Z,7.59
2022-10-14T01:35:08.039Z,7.66
2022-10-14T01:37:37.274Z,7.77
2022-10-14T01:40:08.650Z,7.81
2022-10-14T01:42:39.562Z,7.87
2022-10-14T01:45:11.754Z,7.90
2022-10-14T01:47:42.061Z,7.89
2022-10-14T01:50:13.570Z,7.91
2022-10-14T01:52:45.183Z,7.90
2022-10-14T01:55:17.435Z,7.90
2022-10-14T01:57:45.789Z,7.83
2022-10-14T02:00:15.274Z,7.84
2022-10-14T02:02:43.900Z,7.85
2022-10-14T02:05:17.998Z,7.86
2022-10-14T02:07:47.868Z,7.83
2022-10-14T02:10:27.231Z,7.80
2022-10-14T02:13:07.886Z,7.80
2022-10-14T02:15:45.587Z,7.81
2022-10-14T02:18:24.055Z,7.81
2022-10-14T02:20:57.990Z,7.92
2022-10-14T02:23:30.530Z,7.87
2022-10-14T02:25:58.289Z,7.96
2022-10-14T02:28:29.064Z,7.98
2022-10-14T02:30:58.606Z,8.04
2022-10-14T02:33:33.313Z,8.09
2022-10-14T02:36:02.077Z,8.12
2022-10-14T02:38:30.499Z,8.08
2022-10-14T02:41:03.128Z,8.18
2022-10-14T02:43:30.246Z,8.21
2022-10-14T02:45:58.280Z,8.26
2022-10-14T02:48:27.042Z,8.31
2022-10-14T02:50:54.863Z,8.35
2022-10-14T02:53:21.710Z,8.43
2022-10-14T02:55:48.565Z,8.43
2022-10-14T02:58:15.454Z,8.45
2022-10-14T03:00:42.625Z,8.49
2022-10-14T03:03:11.323Z,8.52
2022-10-14T03:05:40.354Z,8.53
2022-10-14T03:08:12.484Z,8.55
2022-10-14T03:10:40.068Z,8.54
2022-10-14T03:13:09.764Z,8.56
2022-10-14T03:15:41.477Z,8.59
2022-10-14T03:18:10.423Z,8.64
2022-10-14T03:20:45.548Z,8.70
2022-10-14T03:23:16.961Z,8.71
2022-10-14T03:25:46.970Z,8.76
2022-10-14T03:28:19.730Z,8.81
2022-10-14T03:30:52.795Z,8.94
2022-10-14T03:33:38.490Z,8.94
2022-10-14T03:36:12.291Z,9.00
2022-10-14T03:38:46.372Z,9.06
2022-10-14T03:41:25.076Z,9.24
2022-10-14T03:43:52.890Z,9.42
2022-10-14T03:46:20.432Z,9.50
2022-10-14T03:48:50.356Z,9.58
2022-10-14T03:51:18.826Z,9.61
2022-10-14T03:53:46.862Z,9.71
2022-10-14T03:56:18.466Z,9.78
2022-10-14T03:58:46.330Z,9.86
2022-10-14T04:01:14.986Z,9.94
2022-10-14T04:04:11.443Z,10.02
2022-10-14T04:06:39.748Z,10.00
2022-10-14T04:09:07.729Z,10.03
2022-10-14T04:11:38.425Z,10.17
2022-10-14T04:14:09.436Z,10.22
2022-10-14T04:16:48.848Z,10.21
2022-10-14T04:19:17.106Z,10.20
2022-10-14T04:21:45.931Z,10.26
2022-10-14T04:24:12.877Z,10.27
2022-10-14T04:26:50.170Z,10.26
2022-10-14T04:29:24.983Z,10.28
2022-10-14T04:32:01.927Z,10.21
2022-10-14T04:34:29.679Z,10.26
2022-10-14T04:36:58.130Z,10.30
2022-10-14T04:39:43.814Z,10.29
2022-10-14T04:42:11.582Z,10.35
2022-10-14T04:44:38.922Z,10.31
2022-10-14T04:47:06.419Z,10.24
2022-10-14T04:49:33.315Z,10.24
2022-10-14T04:52:23.906Z,10.20
2022-10-14T04:55:00.484Z,10.21
2022-10-14T04:57:37.501Z,10.21
2022-10-14T05:00:05.395Z,10.25
2022-10-14T05:02:51.652Z,10.25
2022-10-14T05:05:20.041Z,10.24
2022-10-14T05:07:53.050Z,10.27
2022-10-14T05:10:29.176Z,10.18
2022-10-14T05:12:56.533Z,10.24
2022-10-14T05:15:27.036Z,10.24
2022-10-14T05:18:01.455Z,10.16
2022-10-14T05:20:43.413Z,10.19
2022-10-14T05:23:11.912Z,10.22
2022-10-14T05:25:39.078Z,10.23
2022-10-14T05:28:06.118Z,10.26
2022-10-14T05:30:34.931Z,10.29
2022-10-14T05:33:05.037Z,10.28
2022-10-14T05:35:57.692Z,10.28
2022-10-14T05:38:22.508Z,10.33
2022-10-14T05:40:54.002Z,10.30
2022-10-14T05:43:21.557Z,10.39
2022-10-14T05:45:49.063Z,10.39
2022-10-14T05:48:15.987Z,10.39
2022-10-14T05:50:44.012Z,10.41
2022-10-14T05:53:15.301Z,10.41
2022-10-14T05:55:48.649Z,10.43
2022-10-14T05:58:16.043Z,10.44
2022-10-14T06:00:44.903Z,10.47
2022-10-14T06:03:15.707Z,10.48
2022-10-14T06:05:42.692Z,10.49
2022-10-14T06:08:09.790Z,10.51
2022-10-14T06:10:38.505Z,10.49
2022-10-14T06:13:06.761Z,10.50
2022-10-14T06:15:37.052Z,10.54
2022-10-14T06:18:04.429Z,10.56
2022-10-14T06:20:32.418Z,10.59
2022-10-14T06:22:59.770Z,10.56
2022-10-14T06:25:27.116Z,10.65
2022-10-14T06:27:54.043Z,10.67
2022-10-14T06:30:22.269Z,10.68
2022-10-14T06:32:49.142Z,10.69
2022-10-14T06:35:16.302Z,10.67
2022-10-14T06:37:45.144Z,10.64
2022-10-14T06:40:12.020Z,10.69
2022-10-14T06:42:39.017Z,10.71
2022-10-14T06:45:06.719Z,10.72
2022-10-14T06:47:35.054Z,10.77
2022-10-14T06:50:02.045Z,10.77
2022-10-14T06:52:28.801Z,10.86
2022-10-14T06:54:55.617Z,10.85
2022-10-14T06:57:22.525Z,10.83
2022-10-14T06:59:49.318Z,10.82
2022-10-14T07:02:16.120Z,10.84
2022-10-14T07:04:44.406Z,10.85
2022-10-14T07:07:11.193Z,10.89
2022-10-14T07:09:38.351Z,10.89
2022-10-14T07:12:05.398Z,10.92
2022-10-14T07:14:32.229Z,10.90
2022-10-14T07:16:59.177Z,10.93
2022-10-14T07:19:26.014Z,10.97
2022-10-14T07:21:54.373Z,10.99
2022-10-14T07:24:21.360Z,10.98
2022-10-14T07:26:48.202Z,11.09
2022-10-14T07:29:15.090Z,11.14
2022-10-14T07:31:42.182Z,11.08
2022-10-14T07:34:09.580Z,11.18
2022-10-14T07:36:36.570Z,11.19
2022-10-14T07:39:05.976Z,11.26
2022-10-14T07:41:33.176Z,11.29
2022-10-14T07:44:02.860Z,11.31
2022-10-14T07:46:32.421Z,11.36
2022-10-14T07:49:02.269Z,11.35
2022-10-14T07:51:29.752Z,11.42
2022-10-14T07:53:58.926Z,11.43
2022-10-14T07:56:27.896Z,11.41
2022-10-14T07:58:55.542Z,11.36
2022-10-14T08:01:24.331Z,11.49
2022-10-14T08:03:52.235Z,11.53
2022-10-14T08:06:19.082Z,11.52
2022-10-14T08:08:46.178Z,11.53
2022-10-14T08:11:15.453Z,11.58
2022-10-14T08:13:46.252Z,11.60
2022-10-14T08:16:18.534Z,11.66
2022-10-14T08:18:46.224Z,11.68
2022-10-14T08:21:13.625Z,11.69
2022-10-14T08:23:40.469Z,11.70
2022-10-14T08:26:19.347Z,11.60
2022-10-14T08:28:47.666Z,11.59
2022-10-14T08:31:14.597Z,11.65
2022-10-14T08:33:41.666Z,11.64
2022-10-14T08:36:09.076Z,11.63
2022-10-14T08:38:36.069Z,11.68
2022-10-14T08:41:16.760Z,11.78
2022-10-14T08:43:51.245Z,11.80
2022-10-14T08:46:24.438Z,11.86
2022-10-14T08:49:01.384Z,11.85
2022-10-14T08:51:30.722Z,11.94
2022-10-14T08:54:06.310Z,11.97
2022-10-14T08:56:35.309Z,12.00
2022-10-14T08:59:07.734Z,12.02
2022-10-14T09:01:40.424Z,11.98
2022-10-14T09:04:12.993Z,11.96
2022-10-14T09:06:42.752Z,11.93
2022-10-14T09:09:17.518Z,11.96
2022-10-14T09:11:49.453Z,11.99
2022-10-14T09:14:21.252Z,12.02
2022-10-14T09:16:54.313Z,12.13
2022-10-14T09:19:28.834Z,12.29
2022-10-14T09:21:56.072Z,12.32
2022-10-14T09:24:25.731Z,12.32
2022-10-14T09:29:32.987Z,12.24
2022-10-14T09:32:03.458Z,12.35
2022-10-14T09:34:34.669Z,12.35
2022-10-14T09:37:19.569Z,12.40
2022-10-14T09:39:47.667Z,12.41
2022-10-14T09:42:19.375Z,12.44
2022-10-14T09:45:05.433Z,12.44
2022-10-14T09:47:35.394Z,12.50
2022-10-14T09:50:08.697Z,12.52
2022-10-14T09:52:37.548Z,12.48
2022-10-14T09:55:13.782Z,12.50
2022-10-14T09:57:40.692Z,12.39
2022-10-14T10:00:26.186Z,12.33
2022-10-14T10:02:55.397Z,12.34
2022-10-14T10:05:27.615Z,12.38
2022-10-14T10:08:03.573Z,12.39
2022-10-14T10:10:31.190Z,12.42
2022-10-14T10:12:58.281Z,12.54
2022-10-14T10:15:26.531Z,12.62
2022-10-14T10:17:53.550Z,12.50
2022-10-14T10:20:28.329Z,12.49
2022-10-14T10:22:56.636Z,12.74
2022-10-14T10:25:26.671Z,12.74
2022-10-14T10:27:57.144Z,12.76
2022-10-14T10:30:28.084Z,12.76
2022-10-14T10:33:21.952Z,12.79
2022-10-14T10:36:06.510Z,12.80
2022-10-14T10:38:39.773Z,12.84
2022-10-14T10:41:22.496Z,12.87
2022-10-14T10:44:14.032Z,12.85
2022-10-14T10:47:05.779Z,12.90
2022-10-14T10:49:51.338Z,12.93
2022-10-14T10:52:30.934Z,12.90
2022-10-14T10:55:11.865Z,12.84
2022-10-14T10:57:52.822Z,12.93
2022-10-14T11:03:01.221Z,12.89
2022-10-14T11:05:39.580Z,12.98
2022-10-14T11:08:43.526Z,13.01
2022-10-14T11:11:40.039Z,13.03
2022-10-14T11:14:18.306Z,13.04
2022-10-14T11:16:54.234Z,13.08
2022-10-14T11:19:28.864Z,13.20
2022-10-14T11:22:05.291Z,13.22
2022-10-14T11:24:42.309Z,13.20
2022-10-14T11:27:14.182Z,13.21
2022-10-14T11:30:14.051Z,13.23
2022-10-14T11:32:56.160Z,13.21
2022-10-14T11:38:19.932Z,13.31
2022-10-14T11:40:58.921Z,13.42
2022-10-14T11:43:37.001Z,13.34
2022-10-14T11:46:07.869Z,13.50
2022-10-14T11:48:39.433Z,13.53
2022-10-14T11:51:15.221Z,13.56
2022-10-14T11:54:02.920Z,13.53
2022-10-14T11:56:39.484Z,13.58
2022-10-14T11:59:27.652Z,13.59
2022-10-14T12:02:04.053Z,13.69
2022-10-14T12:04:36.340Z,13.70
2022-10-14T12:07:11.338Z,13.81
2022-10-14T12:09:42.513Z,13.87
2022-10-14T12:12:14.102Z,13.93
2022-10-14T12:14:44.985Z,13.92
2022-10-14T12:17:21.315Z,13.99
2022-10-14T12:19:49.883Z,14.04
2022-10-14T12:22:22.073Z,14.07
2022-10-14T12:24:52.477Z,14.11
2022-10-14T12:27:22.357Z,14.10
2022-10-14T12:29:51.701Z,14.03
2022-10-14T12:32:22.294Z,14.12
2022-10-14T12:34:50.806Z,14.13
2022-10-14T12:37:52.814Z,14.26
2022-10-14T12:40:28.663Z,14.27
2022-10-14T12:43:17.226Z,14.27
2022-10-14T12:45:50.972Z,14.23
2022-10-14T12:48:24.357Z,14.29
2022-10-14T12:50:57.592Z,14.32
2022-10-14T12:53:28.720Z,14.34
2022-10-14T12:55:58.542Z,14.35
2022-10-14T12:58:29.253Z,14.34
2022-10-14T13:01:01.087Z,14.40
2022-10-14T13:03:34.238Z,14.45
2022-10-14T13:06:27.724Z,14.43
2022-10-14T13:09:32.976Z,14.44
2022-10-14T13:12:42.060Z,14.41
2022-10-14T13:18:58.056Z,14.51
2022-10-14T13:21:33.688Z,14.70
2022-10-14T13:24:02.951Z,14.75
2022-10-14T13:26:38.966Z,14.89
2022-10-14T13:29:16.526Z,14.95
2022-10-14T13:31:51.288Z,15.08
2022-10-14T13:34:29.585Z,15.25
2022-10-14T13:37:11.551Z,15.34
2022-10-14T13:39:39.432Z,15.26
2022-10-14T13:42:06.400Z,15.34
2022-10-14T13:44:35.761Z,15.37
2022-10-14T13:47:02.792Z,15.42
2022-10-14T13:49:34.848Z,15.35
2022-10-14T13:52:05.094Z,15.31
2022-10-14T13:54:32.415Z,15.27
2022-10-14T13:57:31.522Z,15.18
2022-10-14T14:02:40.189Z,15.25
2022-10-14T14:05:14.118Z,15.39
2022-10-14T14:10:31.347Z,15.51
2022-10-14T14:13:05.796Z,15.56
2022-10-14T14:15:36.034Z,15.64
2022-10-14T14:18:02.920Z,15.61
2022-10-14T14:20:30.602Z,15.55
2022-10-14T14:22:58.846Z,15.55
2022-10-14T14:25:43.040Z,15.42
2022-10-14T14:28:15.732Z,15.37
2022-10-14T14:30:54.355Z,15.27
2022-10-14T14:33:29.505Z,15.26
2022-10-14T14:35:59.980Z,15.24
2022-10-14T14:38:29.965Z,15.15
2022-10-14T14:41:01.641Z,15.19
2022-10-14T14:43:34.836Z,15.21
2022-10-14T14:46:06.063Z,15.12
2022-10-14T14:48:33.602Z,15.10
2022-10-14T14:51:01.484Z,15.07
2022-10-14T14:53:30.042Z,14.99
2022-10-14T14:56:10.379Z,14.95
2022-10-14T14:58:47.385Z,14.92
2022-10-14T15:01:21.638Z,14.92
2022-10-14T15:04:12.016Z,14.86
2022-10-14T15:06:51.383Z,14.78
2022-10-14T15:09:24.231Z,14.70
2022-10-14T15:11:54.976Z,14.72
2022-10-14T15:14:31.999Z,14.64
2022-10-14T15:17:01.179Z,14.61
2022-10-14T15:19:38.429Z,14.49
2022-10-14T15:22:29.507Z,14.51
2022-10-14T15:25:05.714Z,14.58
2022-10-14T15:27:57.021Z,14.65
2022-10-14T15:30:27.875Z,14.50
2022-10-14T15:32:59.215Z,14.34
2022-10-14T15:35:27.348Z,14.19
2022-10-14T15:37:54.435Z,14.17
2022-10-14T15:40:23.746Z,14.13
2022-10-14T15:42:51.004Z,14.07
2022-10-14T15:45:19.120Z,14.11
2022-10-14T15:47:52.290Z,14.07
2022-10-14T15:50:23.208Z,14.06
2022-10-14T15:52:53.721Z,14.00
2022-10-14T15:55:23.170Z,13.98
2022-10-14T15:57:50.225Z,13.95
2022-10-14T16:00:19.102Z,13.92
2022-10-14T16:02:47.397Z,13.87
2022-10-14T16:05:19.895Z,13.77
2022-10-14T16:07:50.096Z,13.79
2022-10-14T16:10:19.979Z,13.77
2022-10-14T16:12:47.499Z,13.72
2022-10-14T16:15:26.275Z,13.66
2022-10-14T16:17:53.335Z,13.64
2022-10-14T16:20:20.464Z,13.62
2022-10-14T16:22:47.324Z,13.62
2022-10-14T16:25:20.951Z,13.49
2022-10-14T16:27:47.752Z,13.51
2022-10-14T16:30:14.761Z,13.41
2022-10-14T16:32:41.578Z,13.43
2022-10-14T16:35:09.224Z,13.42
2022-10-14T16:37:39.001Z,13.40
2022-10-14T16:40:07.419Z,13.35
2022-10-14T16:42:35.585Z,13.29
2022-10-14T16:45:02.781Z,13.30
2022-10-14T16:47:29.680Z,13.23
2022-10-14T16:49:59.811Z,13.23
2022-10-14T16:52:26.915Z,13.19
2022-10-14T16:54:53.971Z,13.13
2022-10-14T16:57:20.941Z,13.15
2022-10-14T16:59:49.090Z,13.09
2022-10-14T17:02:18.017Z,13.09
2022-10-14T17:04:46.643Z,13.09
2022-10-14T17:07:14.950Z,13.06
2022-10-14T17:09:41.748Z,13.05
2022-10-14T17:12:12.940Z,13.02
2022-10-14T17:14:41.355Z,13.02
2022-10-14T17:17:10.542Z,13.01
2022-10-14T17:19:38.505Z,13.00
2022-10-14T17:22:05.322Z,12.97
2022-10-14T17:24:32.365Z,12.96
2022-10-14T17:26:59.221Z,12.93
2022-10-14T17:29:26.357Z,12.90
2022-10-14T17:31:53.417Z,12.90
2022-10-14T17:34:22.007Z,12.89
2022-10-14T17:36:49.235Z,12.87
2022-10-14T17:39:24.227Z,12.87
2022-10-14T17:41:56.257Z,12.82
2022-10-14T17:44:23.030Z,12.84
2022-10-14T17:46:49.886Z,12.88
2022-10-14T17:49:16.717Z,12.87
2022-10-14T17:51:44.969Z,12.88
2022-10-14T17:54:12.598Z,12.88
2022-10-14T17:56:39.754Z,12.87
2022-10-14T17:59:08.090Z,12.92
2022-10-14T18:02:02.063Z,12.85
2022-10-14T18:04:22.133Z,12.87
2022-10-14T18:06:50.442Z,12.88
2022-10-14T18:09:17.278Z,12.88
2022-10-14T18:14:33.537Z,12.89
2022-10-14T18:17:00.351Z,12.89
2022-10-14T18:19:27.373Z,12.99
2022-10-14T18:21:55.756Z,13.02
2022-10-14T18:24:23.426Z,13.05
2022-10-14T18:26:50.212Z,13.00
2022-10-14T18:29:17.026Z,12.92
2022-10-14T18:31:43.955Z,12.86
2022-10-14T18:34:12.081Z,12.80
2022-10-14T18:36:39.101Z,12.68
2022-10-14T18:39:10.381Z,12.67
2022-10-14T18:41:37.334Z,12.65
2022-10-14T18:44:04.823Z,12.65
2022-10-14T18:46:34.168Z,12.62
2022-10-14T18:49:01.971Z,12.64
2022-10-14T18:51:30.655Z,12.60
2022-10-14T18:53:59.297Z,12.59
2022-10-14T18:56:30.048Z,12.54
2022-10-14T18:58:59.140Z,12.53
2022-10-14T19:01:26.785Z,12.56
2022-10-14T19:03:54.120Z,12.54
2022-10-14T19:06:22.412Z,12.50
2022-10-14T19:08:50.265Z,12.51
2022-10-14T19:11:22.312Z,12.50
2022-10-14T19:13:52.093Z,12.50
2022-10-14T19:16:20.809Z,12.55
2022-10-14T19:18:48.060Z,12.50
2022-10-14T19:21:16.203Z,12.44
2022-10-14T19:23:43.957Z,12.47
2022-10-14T19:26:13.687Z,12.47
2022-10-14T19:28:41.244Z,12.48
2022-10-14T19:31:12.098Z,12.44
2022-10-14T19:33:40.882Z,12.43
2022-10-14T19:36:09.025Z,12.45
2022-10-14T19:38:37.578Z,12.39
2022-10-14T19:41:07.800Z,12.46
2022-10-14T19:43:35.146Z,12.43
2022-10-14T19:46:05.824Z,12.41
2022-10-14T19:48:34.105Z,12.46
2022-10-14T19:51:06.141Z,12.47
2022-10-14T19:53:34.027Z,12.47
2022-10-14T19:56:04.412Z,12.52
2022-10-14T19:58:31.405Z,12.52
2022-10-14T20:00:58.615Z,12.54
2022-10-14T20:03:27.043Z,12.57
2022-10-14T20:06:01.956Z,12.49
2022-10-14T20:08:29.108Z,12.62
2022-10-14T20:10:56.239Z,12.66
2022-10-14T20:13:23.414Z,12.69
2022-10-14T20:15:54.527Z,12.69
2022-10-14T20:18:21.523Z,12.69
2022-10-14T20:20:51.411Z,12.77
2022-10-14T20:23:20.904Z,12.81
2022-10-14T20:25:47.577Z,12.80
2022-10-14T20:28:19.404Z,12.79
2022-10-14T20:30:47.897Z,12.82
2022-10-14T20:33:15.123Z,12.83
2022-10-14T20:35:42.013Z,12.85
2022-10-14T20:38:08.798Z,12.82
2022-10-14T20:40:37.820Z,12.77
2022-10-14T20:43:05.075Z,12.77
2022-10-14T20:45:31.922Z,12.81
2022-10-14T20:47:59.070Z,12.81
2022-10-14T20:50:26.011Z,12.83
2022-10-14T20:52:52.838Z,12.89
2022-10-14T20:55:19.627Z,12.90
2022-10-14T20:57:48.149Z,12.88
2022-10-14T21:00:15.537Z,12.87
2022-10-14T21:05:10.391Z,12.90
2022-10-14T21:07:37.413Z,12.87
2022-10-14T21:10:04.807Z,12.92
2022-10-14T21:12:31.777Z,12.87
2022-10-14T21:15:00.420Z,12.88
2022-10-14T21:17:27.307Z,12.89
2022-10-14T21:19:54.738Z,12.80
2022-10-14T21:22:21.946Z,12.81
2022-10-14T21:24:49.077Z,12.76
2022-10-14T21:27:16.023Z,12.75
2022-10-14T21:29:42.994Z,12.75
2022-10-14T21:32:11.417Z,12.76
2022-10-14T21:34:38.454Z,12.66
2022-10-14T21:37:05.607Z,12.72
2022-10-14T21:39:32.557Z,12.73
2022-10-14T21:41:59.438Z,12.70
2022-10-14T21:44:26.562Z,12.70
2022-10-14T21:46:53.386Z,12.70
2022-10-14T21:49:21.758Z,12.74
2022-10-14T21:51:48.714Z,12.76
2022-10-14T21:54:15.648Z,12.74
2022-10-14T21:56:42.733Z,12.74
2022-10-14T21:59:09.846Z,12.73
2022-10-14T22:01:36.732Z,12.77
2022-10-14T22:04:05.764Z,12.79
2022-10-14T22:06:35.438Z,12.78
2022-10-14T22:09:05.317Z,12.85
2022-10-14T22:11:34.169Z,12.85
2022-10-14T22:14:03.666Z,12.82
2022-10-14T22:16:31.036Z,12.92
2022-10-14T22:18:59.996Z,12.96
2022-10-14T22:21:29.225Z,13.02
2022-10-14T22:23:59.109Z,13.01
2022-10-14T22:26:28.409Z,13.03
2022-10-14T22:29:00.147Z,13.05
2022-10-14T22:31:28.579Z,12.98
2022-10-14T22:33:55.515Z,13.03
2022-10-14T22:36:24.870Z,13.02
2022-10-14T22:38:53.200Z,13.00
2022-10-14T22:41:22.492Z,12.97
2022-10-14T22:43:51.172Z,13.04
2022-10-14T22:46:20.510Z,13.03
2022-10-14T22:48:47.719Z,13.01
2022-10-14T22:51:16.437Z,12.99
2022-10-14T22:53:44.971Z,12.95
2022-10-14T22:56:14.477Z,12.96
2022-10-14T22:58:42.966Z,12.95
2022-10-14T23:01:11.228Z,12.90
2022-10-14T23:03:38.136Z,12.84
2022-10-14T23:06:07.230Z,12.82
2022-10-14T23:08:34.818Z,12.80
2022-10-14T23:11:03.016Z,12.79
2022-10-14T23:13:30.127Z,12.72
2022-10-14T23:16:00.215Z,12.83
2022-10-14T23:18:28.479Z,12.78
2022-10-14T23:20:55.476Z,12.80
2022-10-14T23:23:22.487Z,12.80
2022-10-14T23:25:49.378Z,12.86
2022-10-14T23:28:16.181Z,12.84
2022-10-14T23:30:43.584Z,12.83
2022-10-14T23:33:12.671Z,12.86
2022-10-14T23:35:39.607Z,12.86
2022-10-14T23:38:06.564Z,12.90
2022-10-14T23:40:33.592Z,12.92
2022-10-14T23:43:01.200Z,12.93
2022-10-14T23:45:28.003Z,12.93
2022-10-14T23:47:54.926Z,12.94
2022-10-14T23:50:23.101Z,12.90
2022-10-14T23:52:49.935Z,12.89
2022-10-14T23:55:16.813Z,12.85
2022-10-14T23:57:43.697Z,12.81
